Terminal Aerodrome Forecast
Issued by NWS Pocatello, ID

Home | Current Version | Previous Version | Text Only | Print | Product List | Glossary On
Versions: 1 2 3 4 5 6 7 8 9 10 11 12 13 14 15
000
FTUS45 KPIH 302300
TAFPIH
TAF
KPIH 302321Z 3100/3124 25015G24KT P6SM SCT100 OVC200
     FM310200 24013G20KT P6SM BKN070
     FM310500 22011KT P6SM VCSH SCT050 OVC090
     FM311100 21011KT P6SM SCT050
     FM311700 24015G25KT P6SM BKN200=

USA.gov is the U.S. government's official web portal to all federal, state and local government web resources and services.